MSC Turchia — A8IL9 — position and weather

sailwx.info

Track history (hours):
 
Tides and Currents Weather Stations Pressure Air Temp Water Temp Dewpoint Dewpoint Depression Visibility Wind Speed Wind Dir Waves Ship Positions

MSC Turchia

Last reported at 2015-Apr-18 12:33 UTC. Time now 2015-Apr-18 13:08 UTC.
Position N 39°12' W 075°17'.

Length 276 m; beam 40 m; draft 14 m.

Type: Ship. MMSI: 636091212.

Date/timePositionNaut miles runAvg speedWind from/ knotsBaromVisibWave heightAir tempDewpointWater temp
2015-Apr-18 12:33N 39°12' W 075°17'1716.5
2015-Apr-18 11:33N 38°57' W 075°07'1111.5
2015-Apr-18 10:34N 38°47' W 075°01'9 8.7
2015-Apr-18 09:34N 38°41' W 074°53'2 1.6
2015-Apr-18 08:31N 38°40' W 074°51'0 0.1
2015-Apr-18 07:31N 38°40' W 074°51'0 0.0
2015-Apr-18 06:28N 38°41' W 074°51'0 0.0
2015-Apr-18 05:32N 38°41' W 074°51'0 0.0
2015-Apr-18 04:31N 38°41' W 074°51'0 0.1
2015-Apr-18 03:32N 38°41' W 074°51'0 0.1
2015-Apr-18 02:31N 38°41' W 074°51'0 0.1
2015-Apr-18 01:32N 38°41' W 074°51'0 0.0
2015-Apr-18 00:32N 38°41' W 074°51'0 0.0
2015-Apr-17 23:31N 38°41' W 074°51'0 0.0
2015-Apr-17 22:32N 38°41' W 074°51'0 0.0
2015-Apr-17 21:32N 38°41' W 074°51'0 0.0
2015-Apr-17 20:32N 38°41' W 074°51'0 0.2
2015-Apr-17 19:32N 38°41' W 074°51'15 7.6
2015-Apr-17 17:32N 38°35' W 074°33'5719.1
2015-Apr-17 14:33N 39°26' W 074°01'1918.9
2015-Apr-17 13:33N 39°44' W 073°52'2519.1
2015-Apr-17 12:14N 40°09' W 073°50'810.6
2015-Apr-17 11:30N 40°17' W 073°49'9 9.9
2015-Apr-17 10:33N 40°26' W 073°49'1010.2
2015-Apr-17 09:33N 40°31' W 074°00'9 9.1
2015-Apr-17 08:33N 40°40' W 074°04'1 0.8
2015-Apr-17 07:33N 40°40' W 074°05'0 0.0
2015-Apr-17 06:33N 40°40' W 074°05'0 0.0
2015-Apr-17 05:33N 40°40' W 074°05'0 0.0
2015-Apr-17 04:30N 40°40' W 074°05'0 0.0
2015-Apr-17 03:33N 40°40' W 074°05'0 0.0
2015-Apr-17 02:33N 40°40' W 074°05'0 0.0
2015-Apr-17 01:33N 40°40' W 074°05'0 0.0
2015-Apr-17 00:33N 40°40' W 074°05'0 0.0
2015-Apr-16 23:33N 40°40' W 074°05'0 0.0
2015-Apr-16 22:33N 40°40' W 074°05'0 0.0
2015-Apr-16 21:33N 40°40' W 074°05'0 0.0
2015-Apr-16 20:33N 40°40' W 074°05'0 0.0
2015-Apr-16 19:33N 40°40' W 074°05'0 0.0
2015-Apr-16 18:33N 40°40' W 074°05'0 0.0
2015-Apr-16 17:33N 40°40' W 074°05'0 0.0
2015-Apr-16 16:33N 40°40' W 074°05'0 0.0
2015-Apr-16 15:33N 40°40' W 074°05'0 0.0
2015-Apr-16 14:33N 40°40' W 074°05'0 0.0
2015-Apr-16 13:33N 40°40' W 074°05'0 0.0
2015-Apr-16 12:33N 40°40' W 074°05'0 0.0
2015-Apr-16 11:33N 40°40' W 074°05'0 0.0
2015-Apr-16 10:33N 40°40' W 074°05'0 0.0
2015-Apr-16 09:33N 40°40' W 074°05'0 0.0
2015-Apr-16 08:33N 40°40' W 074°05'0 0.0
2015-Apr-16 07:30N 40°40' W 074°05'0 0.0
2015-Apr-16 06:30N 40°40' W 074°05'0 0.0
2015-Apr-16 05:33N 40°40' W 074°05'0 0.0
2015-Apr-16 04:33N 40°40' W 074°05'0 0.0
2015-Apr-16 03:33N 40°40' W 074°05'0 0.0
2015-Apr-16 02:33N 40°40' W 074°05'0 0.0
2015-Apr-16 01:33N 40°40' W 074°05'0 0.0
2015-Apr-16 00:33N 40°40' W 074°05'2 1.8
2015-Apr-15 23:34N 40°39' W 074°03'1111.4
2015-Apr-15 22:33N 40°29' W 073°55'9 8.9
2015-Apr-15 21:33N 40°29' W 073°43'4 2.1
2015-Apr-15 19:28N 40°29' W 073°38'0 0.0
2015-Apr-15 12:25N 40°30' W 073°37'0 0.1
2015-Apr-15 11:32N 40°30' W 073°37'6 5.6
2015-Apr-15 10:32N 40°25' W 073°42'8 8.6
2015-Apr-15 09:33N 40°19' W 073°34'1111.3
2015-Apr-15 08:34N 40°13' W 073°22'1312.5
2015-Apr-15 07:33N 40°04' W 073°10'1312.7
2015-Apr-15 06:34N 39°56' W 072°58'1313.1
2015-Apr-15 05:33N 39°46' W 072°46'1413.3
2015-Apr-15 04:32N 39°36' W 072°34'1313.2
2015-Apr-15 03:30N 39°27' W 072°21'  
Track history (hours):
 
Tides and Currents Weather Stations Pressure Air Temp Water Temp Dewpoint Dewpoint Depression Visibility Wind Speed Wind Dir Waves Ship Positions

MSC Turchia

Last reported at 2015-Apr-18 12:33 UTC. Time now 2015-Apr-18 13:08 UTC.
Position N 39°12' W 075°17'.

Length 276 m; beam 40 m; draft 14 m.

Type: Ship. MMSI: 636091212.

Date/timePositionNaut miles runAvg speedWind from/ knotsBaromVisibWave heightAir tempDewpointWater temp
2015-Apr-18 12:33N 39°12' W 075°17'1716.5
2015-Apr-18 11:33N 38°57' W 075°07'1111.5
2015-Apr-18 10:34N 38°47' W 075°01'9 8.7
2015-Apr-18 09:34N 38°41' W 074°53'2 1.6
2015-Apr-18 08:31N 38°40' W 074°51'0 0.1
2015-Apr-18 07:31N 38°40' W 074°51'0 0.0
2015-Apr-18 06:28N 38°41' W 074°51'0 0.0
2015-Apr-18 05:32N 38°41' W 074°51'0 0.0
2015-Apr-18 04:31N 38°41' W 074°51'0 0.1
2015-Apr-18 03:32N 38°41' W 074°51'0 0.1
2015-Apr-18 02:31N 38°41' W 074°51'0 0.1
2015-Apr-18 01:32N 38°41' W 074°51'0 0.0
2015-Apr-18 00:32N 38°41' W 074°51'0 0.0
2015-Apr-17 23:31N 38°41' W 074°51'0 0.0
2015-Apr-17 22:32N 38°41' W 074°51'0 0.0
2015-Apr-17 21:32N 38°41' W 074°51'0 0.0
2015-Apr-17 20:32N 38°41' W 074°51'0 0.2
2015-Apr-17 19:32N 38°41' W 074°51'15 7.6
2015-Apr-17 17:32N 38°35' W 074°33'5719.1
2015-Apr-17 14:33N 39°26' W 074°01'1918.9
2015-Apr-17 13:33N 39°44' W 073°52'2519.1
2015-Apr-17 12:14N 40°09' W 073°50'810.6
2015-Apr-17 11:30N 40°17' W 073°49'9 9.9
2015-Apr-17 10:33N 40°26' W 073°49'1010.2
2015-Apr-17 09:33N 40°31' W 074°00'9 9.1
2015-Apr-17 08:33N 40°40' W 074°04'1 0.8
2015-Apr-17 07:33N 40°40' W 074°05'0 0.0
2015-Apr-17 06:33N 40°40' W 074°05'0 0.0
2015-Apr-17 05:33N 40°40' W 074°05'0 0.0
2015-Apr-17 04:30N 40°40' W 074°05'0 0.0
2015-Apr-17 03:33N 40°40' W 074°05'0 0.0
2015-Apr-17 02:33N 40°40' W 074°05'0 0.0
2015-Apr-17 01:33N 40°40' W 074°05'0 0.0
2015-Apr-17 00:33N 40°40' W 074°05'0 0.0
2015-Apr-16 23:33N 40°40' W 074°05'0 0.0
2015-Apr-16 22:33N 40°40' W 074°05'0 0.0
2015-Apr-16 21:33N 40°40' W 074°05'0 0.0
2015-Apr-16 20:33N 40°40' W 074°05'0 0.0
2015-Apr-16 19:33N 40°40' W 074°05'0 0.0
2015-Apr-16 18:33N 40°40' W 074°05'0 0.0
2015-Apr-16 17:33N 40°40' W 074°05'0 0.0
2015-Apr-16 16:33N 40°40' W 074°05'0 0.0
2015-Apr-16 15:33N 40°40' W 074°05'0 0.0
2015-Apr-16 14:33N 40°40' W 074°05'0 0.0
2015-Apr-16 13:33N 40°40' W 074°05'0 0.0
2015-Apr-16 12:33N 40°40' W 074°05'0 0.0
2015-Apr-16 11:33N 40°40' W 074°05'0 0.0
2015-Apr-16 10:33N 40°40' W 074°05'0 0.0
2015-Apr-16 09:33N 40°40' W 074°05'0 0.0
2015-Apr-16 08:33N 40°40' W 074°05'0 0.0
2015-Apr-16 07:30N 40°40' W 074°05'0 0.0
2015-Apr-16 06:30N 40°40' W 074°05'0 0.0
2015-Apr-16 05:33N 40°40' W 074°05'0 0.0
2015-Apr-16 04:33N 40°40' W 074°05'0 0.0
2015-Apr-16 03:33N 40°40' W 074°05'0 0.0
2015-Apr-16 02:33N 40°40' W 074°05'0 0.0
2015-Apr-16 01:33N 40°40' W 074°05'0 0.0
2015-Apr-16 00:33N 40°40' W 074°05'2 1.8
2015-Apr-15 23:34N 40°39' W 074°03'1111.4
2015-Apr-15 22:33N 40°29' W 073°55'9 8.9
2015-Apr-15 21:33N 40°29' W 073°43'4 2.1
2015-Apr-15 19:28N 40°29' W 073°38'0 0.0
2015-Apr-15 12:25N 40°30' W 073°37'0 0.1
2015-Apr-15 11:32N 40°30' W 073°37'6 5.6
2015-Apr-15 10:32N 40°25' W 073°42'8 8.6
2015-Apr-15 09:33N 40°19' W 073°34'1111.3
2015-Apr-15 08:34N 40°13' W 073°22'1312.5
2015-Apr-15 07:33N 40°04' W 073°10'1312.7
2015-Apr-15 06:34N 39°56' W 072°58'1313.1
2015-Apr-15 05:33N 39°46' W 072°46'1413.3
2015-Apr-15 04:32N 39°36' W 072°34'1313.2
2015-Apr-15 03:30N 39°27' W 072°21'  

Dump ship's entire track history